KSPG 190553Z AUTO 19006KT 10SM CLR 28/23 A3004 RMK AO2 SLP171 T02830233 10294 20278 58006 $

ALBERT WHITTED AIRPORT

Airport Information
Airport Runways
  • Runway 15/33
  • Runway 06/26
FBOs
  • Signature Flight Support
  • Odyssey Aviation
Fuel
  • Self-Serve (100LL)
  • Full Service (100LL, Jet-A)

AIRCRAFT AT KSPG

 

N12933

Albert Whitted (KSPG)

  • Cessna 172M
  • IFR Equipped
  • Garmin G430W
  • ADS-B In/Out

$170/hr

Overnight Minimums

3 hours per day